createdAt,value
2022-08-27T00:00:19.098Z,63.90
2022-08-27T00:00:51.260Z,63.90
2022-08-27T00:01:23.542Z,63.90
2022-08-27T00:01:55.472Z,63.90
2022-08-27T00:02:27.403Z,64.00
2022-08-27T00:02:59.270Z,63.90
2022-08-27T00:03:31.078Z,64.00
2022-08-27T00:04:03.189Z,64.00
2022-08-27T00:04:36.575Z,64.00
2022-08-27T00:05:09.949Z,63.80
2022-08-27T00:05:43.287Z,63.90
2022-08-27T00:06:17.096Z,63.90
2022-08-27T00:06:49.038Z,63.80
2022-08-27T00:07:20.847Z,63.90
2022-08-27T00:07:52.662Z,64.10
2022-08-27T00:08:25.250Z,64.00
2022-08-27T00:08:58.266Z,63.90
2022-08-27T00:09:30.254Z,63.90
2022-08-27T00:10:02.241Z,63.90
2022-08-27T00:10:34.369Z,63.90
2022-08-27T00:11:06.772Z,64.20
2022-08-27T00:11:38.628Z,64.10
2022-08-27T00:12:11.646Z,64.10
2022-08-27T00:12:43.640Z,64.10
2022-08-27T00:13:16.029Z,64.10
2022-08-27T00:13:49.867Z,64.10
2022-08-27T00:14:21.931Z,64.10
2022-08-27T00:14:53.850Z,64.10
2022-08-27T00:15:25.687Z,64.10
2022-08-27T00:15:57.813Z,64.00
2022-08-27T00:16:29.726Z,64.10
2022-08-27T00:17:04.187Z,64.20
2022-08-27T00:17:36.330Z,64.10
2022-08-27T00:18:08.677Z,64.10
2022-08-27T00:18:42.170Z,64.10
2022-08-27T00:19:14.057Z,64.10
2022-08-27T00:19:45.862Z,64.30
2022-08-27T00:20:21.499Z,64.30
2022-08-27T00:20:53.260Z,64.10
2022-08-27T00:21:25.626Z,64.20
2022-08-27T00:21:57.554Z,64.20
2022-08-27T00:22:29.333Z,64.10
2022-08-27T00:23:01.246Z,64.20
2022-08-27T00:23:33.097Z,64.30
2022-08-27T00:24:05.498Z,64.30
2022-08-27T00:24:45.213Z,64.20
2022-08-27T00:25:21.977Z,64.30
2022-08-27T00:25:53.974Z,64.40
2022-08-27T00:26:25.852Z,64.30
2022-08-27T00:26:57.842Z,64.30
2022-08-27T00:27:29.676Z,64.40
2022-08-27T00:28:01.610Z,64.50
2022-08-27T00:28:35.263Z,64.40
2022-08-27T00:29:08.430Z,64.40
2022-08-27T00:29:40.234Z,64.40
2022-08-27T00:30:14.933Z,65.00
2022-08-27T00:30:46.819Z,64.40
2022-08-27T00:31:18.884Z,64.40
2022-08-27T00:31:55.542Z,64.40
2022-08-27T00:32:27.431Z,64.30
2022-08-27T00:32:59.215Z,64.30
2022-08-27T00:33:31.592Z,64.30
2022-08-27T00:34:03.462Z,64.10
2022-08-27T00:34:36.033Z,64.10
2022-08-27T00:35:09.156Z,64.40
2022-08-27T00:35:40.959Z,64.30
2022-08-27T00:36:13.663Z,64.20
2022-08-27T00:36:45.777Z,64.30
2022-08-27T00:37:17.569Z,64.30
2022-08-27T00:37:50.188Z,64.30
2022-08-27T00:38:23.775Z,64.30
2022-08-27T00:38:55.586Z,64.10
2022-08-27T00:39:27.548Z,64.10
2022-08-27T00:39:59.582Z,64.20
2022-08-27T00:40:33.438Z,64.10
2022-08-27T00:41:08.764Z,64.20
2022-08-27T00:41:42.019Z,64.20
2022-08-27T00:42:13.912Z,64.20
2022-08-27T00:42:46.103Z,64.10
2022-08-27T00:43:27.108Z,64.20
2022-08-27T00:44:01.152Z,64.20
2022-08-27T00:44:33.791Z,64.30
2022-08-27T00:45:07.483Z,64.30
2022-08-27T00:45:45.084Z,64.30
2022-08-27T00:46:25.731Z,64.40
2022-08-27T00:47:02.388Z,64.50
2022-08-27T00:47:40.701Z,64.40
2022-08-27T00:48:18.274Z,64.50
2022-08-27T00:48:54.026Z,64.50
2022-08-27T00:49:43.360Z,64.60
2022-08-27T00:50:23.730Z,64.50
2022-08-27T00:50:56.149Z,64.50
2022-08-27T00:51:30.374Z,64.60
2022-08-27T00:52:13.745Z,64.70
2022-08-27T00:52:51.377Z,64.70
2022-08-27T00:53:29.493Z,64.70
2022-08-27T00:54:02.634Z,64.70
2022-08-27T00:54:34.890Z,64.70
2022-08-27T00:55:13.645Z,64.70
2022-08-27T00:55:50.791Z,64.80
2022-08-27T00:56:27.838Z,64.80
2022-08-27T00:57:02.026Z,64.60
2022-08-27T00:57:38.734Z,64.80
2022-08-27T00:58:17.886Z,64.70
2022-08-27T00:58:52.818Z,64.80
2022-08-27T00:59:29.298Z,64.80
2022-08-27T01:00:01.852Z,64.70
2022-08-27T01:00:34.114Z,64.70
2022-08-27T01:01:09.720Z,64.60
2022-08-27T01:02:03.426Z,64.70
2022-08-27T01:02:35.511Z,64.90
2022-08-27T01:03:07.999Z,64.80
2022-08-27T01:03:43.928Z,64.80
2022-08-27T01:04:16.039Z,64.90
2022-08-27T01:04:53.735Z,64.90
2022-08-27T01:05:27.974Z,65.00
2022-08-27T01:06:02.869Z,64.90
2022-08-27T01:06:37.392Z,64.90
2022-08-27T01:07:11.078Z,65.10
2022-08-27T01:07:48.526Z,65.00
2022-08-27T01:08:26.369Z,64.90
2022-08-27T01:09:06.970Z,64.80
2022-08-27T01:09:39.294Z,64.90
2022-08-27T01:10:16.750Z,64.90
2022-08-27T01:10:50.029Z,65.00
2022-08-27T01:11:22.086Z,65.00
2022-08-27T01:11:57.409Z,65.00
2022-08-27T01:12:33.067Z,64.90
2022-08-27T01:13:08.778Z,65.00
2022-08-27T01:14:00.270Z,64.90
2022-08-27T01:14:33.086Z,64.90
2022-08-27T01:15:10.029Z,64.90
2022-08-27T01:15:44.211Z,64.90
2022-08-27T01:16:23.038Z,65.00
2022-08-27T01:16:58.159Z,64.80
2022-08-27T01:17:31.064Z,64.90
2022-08-27T01:18:05.703Z,64.90
2022-08-27T01:18:39.256Z,64.80
2022-08-27T01:19:41.052Z,64.80
2022-08-27T01:20:22.322Z,64.90
2022-08-27T01:21:26.943Z,64.90
2022-08-27T01:22:10.595Z,65.00
2022-08-27T01:23:18.582Z,65.00
2022-08-27T01:24:29.130Z,64.90
2022-08-27T01:25:08.594Z,64.90
2022-08-27T01:25:45.770Z,64.90
2022-08-27T01:26:18.083Z,64.80
2022-08-27T01:26:50.119Z,66.10
2022-08-27T01:27:27.807Z,64.90
2022-08-27T01:28:02.767Z,66.70
2022-08-27T01:28:37.797Z,67.60
2022-08-27T01:29:09.873Z,67.80
2022-08-27T01:29:43.013Z,68.30
2022-08-27T01:30:19.250Z,69.10
2022-08-27T01:30:51.569Z,68.80
2022-08-27T01:31:24.716Z,69.00
2022-08-27T01:32:05.578Z,68.20
2022-08-27T01:32:38.586Z,68.60
2022-08-27T01:33:17.167Z,68.60
2022-08-27T01:34:04.826Z,65.40
2022-08-27T01:34:37.064Z,69.00
2022-08-27T01:35:13.477Z,68.60
2022-08-27T01:35:48.398Z,68.80
2022-08-27T01:36:20.236Z,69.30
2022-08-27T01:36:53.470Z,68.40
2022-08-27T01:37:29.610Z,68.90
2022-08-27T01:38:02.555Z,68.70
2022-08-27T01:38:34.452Z,69.30
2022-08-27T01:39:08.285Z,70.50
2022-08-27T01:39:42.028Z,68.60
2022-08-27T01:40:14.417Z,69.70
2022-08-27T01:40:48.631Z,69.40
2022-08-27T01:41:21.976Z,69.60
2022-08-27T01:41:54.419Z,69.80
2022-08-27T01:42:35.234Z,69.00
2022-08-27T01:43:07.480Z,69.60
2022-08-27T01:43:39.318Z,68.60
2022-08-27T01:44:11.080Z,69.00
2022-08-27T01:44:55.608Z,69.70
2022-08-27T01:45:31.775Z,69.90
2022-08-27T01:46:03.577Z,69.60
2022-08-27T01:46:36.384Z,69.20
2022-08-27T01:47:08.222Z,69.70
2022-08-27T01:47:41.095Z,69.70
2022-08-27T01:48:13.011Z,69.80
2022-08-27T01:48:44.789Z,69.90
2022-08-27T01:49:16.563Z,70.40
2022-08-27T01:49:48.520Z,69.70
2022-08-27T01:50:27.120Z,69.60
2022-08-27T01:50:59.114Z,69.60
2022-08-27T01:51:30.968Z,70.30
2022-08-27T01:52:03.865Z,70.50
2022-08-27T01:52:35.993Z,70.00
2022-08-27T01:53:11.539Z,70.80
2022-08-27T01:53:43.520Z,70.30
2022-08-27T01:54:15.279Z,70.10
2022-08-27T01:54:47.893Z,70.00
2022-08-27T01:55:24.913Z,69.80
2022-08-27T01:55:57.918Z,70.30
2022-08-27T01:56:29.718Z,70.60
2022-08-27T01:57:01.778Z,70.30
2022-08-27T01:57:35.202Z,69.50
2022-08-27T01:58:07.075Z,70.30
2022-08-27T01:58:39.614Z,70.50
2022-08-27T01:59:11.835Z,70.30
2022-08-27T01:59:44.850Z,70.30
2022-08-27T02:00:26.887Z,70.90
2022-08-27T02:01:03.264Z,66.60
2022-08-27T02:01:35.452Z,70.60
2022-08-27T02:02:10.410Z,70.30
2022-08-27T02:02:42.717Z,70.40
2022-08-27T02:03:18.502Z,69.80
2022-08-27T02:03:50.397Z,70.70
2022-08-27T02:04:23.345Z,70.00
2022-08-27T02:04:55.271Z,70.60
2022-08-27T02:05:29.166Z,70.20
2022-08-27T02:06:05.421Z,70.70
2022-08-27T02:06:37.196Z,70.30
2022-08-27T02:07:09.566Z,70.50
2022-08-27T02:07:42.107Z,70.70
2022-08-27T02:08:16.626Z,70.10
2022-08-27T02:08:48.470Z,71.10
2022-08-27T02:09:20.309Z,70.50
2022-08-27T02:09:52.172Z,70.10
2022-08-27T02:10:28.697Z,70.20
2022-08-27T02:11:01.517Z,70.50
2022-08-27T02:11:33.333Z,70.50
2022-08-27T02:12:05.636Z,70.70
2022-08-27T02:12:37.660Z,69.60
2022-08-27T02:13:11.206Z,69.90
2022-08-27T02:13:42.980Z,70.60
2022-08-27T02:14:14.905Z,70.30
2022-08-27T02:14:46.742Z,70.60
2022-08-27T02:15:19.721Z,70.70
2022-08-27T02:15:51.757Z,70.20
2022-08-27T02:16:23.594Z,71.20
2022-08-27T02:16:56.017Z,69.90
2022-08-27T02:17:28.553Z,70.40
2022-08-27T02:18:02.026Z,70.30
2022-08-27T02:18:36.986Z,71.10
2022-08-27T02:19:09.925Z,71.00
2022-08-27T02:19:42.351Z,70.50
2022-08-27T02:20:15.003Z,70.80
2022-08-27T02:20:48.412Z,70.40
2022-08-27T02:21:20.646Z,69.60
2022-08-27T02:21:52.579Z,70.70
2022-08-27T02:22:24.430Z,70.10
2022-08-27T02:22:56.292Z,69.90
2022-08-27T02:23:28.038Z,70.50
2022-08-27T02:24:00.049Z,70.20
2022-08-27T02:24:31.891Z,70.30
2022-08-27T02:25:06.990Z,70.90
2022-08-27T02:25:42.588Z,70.30
2022-08-27T02:26:14.437Z,70.40
2022-08-27T02:26:46.357Z,70.70
2022-08-27T02:27:18.421Z,70.40
2022-08-27T02:27:51.182Z,71.20
2022-08-27T02:28:22.964Z,71.10
2022-08-27T02:28:55.528Z,71.00
2022-08-27T02:29:27.445Z,70.90
2022-08-27T02:29:59.223Z,71.00
2022-08-27T02:30:32.543Z,71.20
2022-08-27T02:31:05.009Z,71.60
2022-08-27T02:31:38.590Z,71.50
2022-08-27T02:32:22.653Z,71.90
2022-08-27T02:33:04.246Z,72.40
2022-08-27T02:33:36.407Z,73.10
2022-08-27T02:34:09.720Z,73.70
2022-08-27T02:34:41.767Z,73.50
2022-08-27T02:35:21.889Z,73.10
2022-08-27T02:35:53.699Z,74.70
2022-08-27T02:36:25.570Z,74.70
2022-08-27T02:36:57.455Z,74.30
2022-08-27T02:37:29.409Z,75.30
2022-08-27T02:38:02.028Z,74.00
2022-08-27T02:38:34.162Z,73.70
2022-08-27T02:39:07.061Z,75.50
2022-08-27T02:40:18.115Z,74.80
2022-08-27T02:40:50.033Z,75.60
2022-08-27T02:41:26.762Z,75.70
2022-08-27T02:41:58.718Z,75.60
2022-08-27T02:42:30.492Z,75.20
2022-08-27T02:43:02.317Z,76.10
2022-08-27T02:43:34.323Z,76.90
2022-08-27T02:44:10.337Z,76.80
2022-08-27T02:44:43.353Z,76.90
2022-08-27T02:45:16.046Z,77.20
2022-08-27T02:46:20.671Z,72.70
2022-08-27T02:46:53.756Z,75.30
2022-08-27T02:47:25.801Z,75.90
2022-08-27T02:47:57.779Z,75.20
2022-08-27T02:48:29.608Z,75.80
2022-08-27T02:49:01.450Z,75.60
2022-08-27T02:49:34.150Z,75.60
2022-08-27T02:50:07.575Z,75.30
2022-08-27T02:50:39.587Z,75.40
2022-08-27T02:51:11.456Z,75.70
2022-08-27T02:51:43.567Z,75.70
2022-08-27T02:52:16.456Z,75.80
2022-08-27T02:52:57.785Z,76.10
2022-08-27T02:53:29.654Z,75.40
2022-08-27T02:54:02.885Z,75.80
2022-08-27T02:54:35.373Z,75.60
2022-08-27T02:55:07.934Z,75.90
2022-08-27T02:55:40.634Z,75.30
2022-08-27T02:56:12.584Z,75.60
2022-08-27T02:56:44.527Z,75.00
2022-08-27T02:57:16.355Z,75.90
2022-08-27T02:57:48.403Z,75.30
2022-08-27T02:58:20.195Z,75.00
2022-08-27T02:58:52.004Z,75.20
2022-08-27T02:59:23.924Z,75.50
2022-08-27T02:59:55.742Z,76.00
2022-08-27T03:00:28.995Z,75.20
2022-08-27T03:01:02.389Z,75.70
2022-08-27T03:01:34.268Z,75.20
2022-08-27T03:02:06.190Z,75.40
2022-08-27T03:02:39.010Z,75.60
2022-08-27T03:03:11.057Z,75.80
2022-08-27T03:03:43.056Z,75.60
2022-08-27T03:04:15.014Z,74.60
2022-08-27T03:04:47.321Z,75.50
2022-08-27T03:05:22.295Z,75.20
2022-08-27T03:05:54.145Z,75.60
2022-08-27T03:06:25.970Z,75.60
2022-08-27T03:06:57.783Z,75.80
2022-08-27T03:07:29.593Z,75.40
2022-08-27T03:08:01.907Z,74.80
2022-08-27T03:08:50.732Z,75.60
2022-08-27T03:09:25.313Z,74.50
2022-08-27T03:10:29.783Z,75.80
2022-08-27T03:11:33.893Z,71.80
2022-08-27T03:12:06.081Z,75.30
2022-08-27T03:12:38.087Z,73.90
2022-08-27T03:13:10.023Z,75.30
2022-08-27T03:13:41.800Z,75.10
2022-08-27T03:14:13.775Z,75.70
2022-08-27T03:14:45.892Z,75.30
2022-08-27T03:15:19.228Z,75.50
2022-08-27T03:15:51.056Z,74.50
2022-08-27T03:16:23.346Z,75.00
2022-08-27T03:16:55.841Z,75.60
2022-08-27T03:17:46.474Z,75.20
2022-08-27T03:18:51.797Z,75.20
2022-08-27T03:19:24.089Z,76.30
2022-08-27T03:19:56.307Z,74.30
2022-08-27T03:20:28.757Z,74.30
2022-08-27T03:21:01.976Z,74.00
2022-08-27T03:21:35.702Z,74.70
2022-08-27T03:22:07.689Z,74.30
2022-08-27T03:22:40.333Z,75.90
2022-08-27T03:23:14.588Z,75.10
2022-08-27T03:23:46.597Z,74.00
2022-08-27T03:24:18.411Z,74.00
2022-08-27T03:24:52.547Z,74.10
2022-08-27T03:25:24.545Z,72.30
2022-08-27T03:25:59.177Z,72.90
2022-08-27T03:26:31.964Z,74.00
2022-08-27T03:27:03.825Z,73.50
2022-08-27T03:27:35.949Z,73.30
2022-08-27T03:28:11.625Z,73.30
2022-08-27T03:28:55.482Z,73.20
2022-08-27T03:29:28.283Z,73.50
2022-08-27T03:30:04.092Z,73.80
2022-08-27T03:30:36.173Z,73.40
2022-08-27T03:31:15.351Z,71.60
2022-08-27T03:31:47.205Z,73.40
2022-08-27T03:32:19.050Z,73.20
2022-08-27T03:32:51.911Z,73.60
2022-08-27T03:33:23.783Z,73.30
2022-08-27T03:33:56.934Z,72.40
2022-08-27T03:34:28.737Z,72.40
2022-08-27T03:35:00.612Z,71.40
2022-08-27T03:35:32.400Z,71.80
2022-08-27T03:36:08.532Z,71.60
2022-08-27T03:36:40.343Z,72.40
2022-08-27T03:37:12.167Z,71.30
2022-08-27T03:37:44.070Z,71.50
2022-08-27T03:38:16.139Z,71.70
2022-08-27T03:38:48.289Z,70.60
2022-08-27T03:39:20.167Z,71.30
2022-08-27T03:39:52.388Z,70.00
2022-08-27T03:40:24.321Z,71.00
2022-08-27T03:40:56.649Z,70.70
2022-08-27T03:41:53.948Z,69.70
2022-08-27T03:42:20.641Z,71.00
2022-08-27T03:42:52.433Z,70.60
2022-08-27T03:43:24.740Z,71.00
2022-08-27T03:43:56.829Z,70.10
2022-08-27T03:44:28.868Z,71.10
2022-08-27T03:45:01.265Z,70.60
2022-08-27T03:45:48.629Z,70.00
2022-08-27T03:46:30.074Z,70.10
2022-08-27T03:47:01.929Z,70.10
2022-08-27T03:47:34.159Z,70.50
2022-08-27T03:48:06.178Z,70.80
2022-08-27T03:48:38.441Z,70.10
2022-08-27T03:49:10.364Z,71.20
2022-08-27T03:49:45.641Z,70.20
2022-08-27T03:50:17.556Z,70.20
2022-08-27T03:50:50.741Z,68.80
2022-08-27T03:51:23.481Z,69.30
2022-08-27T03:51:55.371Z,69.40
2022-08-27T03:52:28.379Z,69.70
2022-08-27T03:53:00.214Z,70.00
2022-08-27T03:53:32.141Z,70.60
2022-08-27T03:54:04.066Z,67.50
2022-08-27T03:54:37.143Z,69.80
2022-08-27T03:55:09.626Z,69.90
2022-08-27T03:55:44.835Z,69.30
2022-08-27T03:56:16.661Z,68.40
2022-08-27T03:56:48.974Z,66.80
2022-08-27T03:57:20.842Z,69.30
2022-08-27T03:57:52.692Z,69.20
2022-08-27T03:58:24.499Z,69.50
2022-08-27T03:58:56.305Z,70.20
2022-08-27T03:59:28.147Z,69.40
2022-08-27T04:00:01.193Z,69.00
2022-08-27T04:00:32.978Z,69.70
2022-08-27T04:01:06.295Z,69.20
2022-08-27T04:01:38.669Z,68.60
2022-08-27T04:02:10.944Z,68.30
2022-08-27T04:02:46.680Z,68.60
2022-08-27T04:03:18.654Z,67.00
2022-08-27T04:03:50.456Z,68.50
2022-08-27T04:04:23.755Z,68.40
2022-08-27T04:04:57.693Z,68.20
2022-08-27T04:05:29.437Z,67.80
2022-08-27T04:06:01.362Z,67.20
2022-08-27T04:06:36.642Z,68.80
2022-08-27T04:07:10.107Z,66.30
2022-08-27T04:07:44.333Z,66.60
2022-08-27T04:08:17.438Z,66.30
2022-08-27T04:08:49.197Z,66.10
2022-08-27T04:09:20.971Z,66.70
2022-08-27T04:09:52.838Z,66.50
2022-08-27T04:10:25.181Z,66.40
2022-08-27T04:10:57.177Z,66.40
2022-08-27T04:11:29.443Z,67.80
2022-08-27T04:12:01.283Z,65.70
2022-08-27T04:12:33.374Z,65.80
2022-08-27T04:13:05.186Z,65.20
2022-08-27T04:13:37.074Z,66.40
2022-08-27T04:14:22.652Z,66.00
2022-08-27T04:14:59.271Z,65.90
2022-08-27T04:15:31.563Z,65.80
2022-08-27T04:16:05.930Z,66.20
2022-08-27T04:16:41.062Z,65.70
2022-08-27T04:17:13.124Z,66.30
2022-08-27T04:17:45.057Z,66.10
2022-08-27T04:18:17.838Z,65.90
2022-08-27T04:18:49.663Z,66.00
2022-08-27T04:19:26.853Z,65.90
2022-08-27T04:20:18.820Z,66.00
2022-08-27T04:20:54.514Z,65.90
2022-08-27T04:21:26.343Z,66.00
2022-08-27T04:22:04.101Z,66.10
2022-08-27T04:22:36.313Z,66.00
2022-08-27T04:23:08.132Z,65.90
2022-08-27T04:23:41.421Z,65.90
2022-08-27T04:24:13.281Z,65.90
2022-08-27T04:24:45.106Z,66.20
2022-08-27T04:25:17.025Z,66.50
2022-08-27T04:25:49.183Z,66.20
2022-08-27T04:26:21.011Z,65.90
2022-08-27T04:26:52.794Z,66.10
2022-08-27T04:27:26.510Z,66.10
2022-08-27T04:27:58.523Z,65.90
2022-08-27T04:28:30.312Z,66.00
2022-08-27T04:29:02.090Z,65.90
2022-08-27T04:29:34.802Z,66.20
2022-08-27T04:30:09.431Z,66.00
2022-08-27T04:30:44.300Z,66.00
2022-08-27T04:31:17.062Z,66.30
2022-08-27T04:31:48.887Z,65.70
2022-08-27T04:32:20.698Z,66.00
2022-08-27T04:32:52.501Z,65.90
2022-08-27T04:33:24.291Z,65.90
2022-08-27T04:33:56.032Z,65.90
2022-08-27T04:34:27.960Z,66.00
2022-08-27T04:35:01.068Z,66.20
2022-08-27T04:35:32.967Z,66.00
2022-08-27T04:36:08.749Z,65.70
2022-08-27T04:36:40.489Z,65.70
2022-08-27T04:37:12.311Z,66.20
2022-08-27T04:37:44.139Z,66.00
2022-08-27T04:38:15.948Z,67.10
2022-08-27T04:38:48.565Z,65.90
2022-08-27T04:39:20.674Z,65.90
2022-08-27T04:39:52.914Z,65.80
2022-08-27T04:40:44.799Z,66.00
2022-08-27T04:41:19.835Z,66.00
2022-08-27T04:41:54.926Z,66.00
2022-08-27T04:42:26.737Z,65.90
2022-08-27T04:42:58.492Z,65.90
2022-08-27T04:43:30.282Z,65.80
2022-08-27T04:44:08.080Z,65.80
2022-08-27T04:44:39.872Z,66.20
2022-08-27T04:45:11.807Z,65.90
2022-08-27T04:45:48.621Z,65.90
2022-08-27T04:46:29.210Z,66.10
2022-08-27T04:47:03.330Z,65.80
2022-08-27T04:47:35.950Z,65.70
2022-08-27T04:48:07.711Z,65.90
2022-08-27T04:48:39.557Z,65.90
2022-08-27T04:49:15.486Z,66.00
2022-08-27T04:49:48.312Z,66.00
2022-08-27T04:50:20.075Z,66.00
2022-08-27T04:50:51.970Z,66.00
2022-08-27T04:51:24.697Z,67.10
2022-08-27T04:51:56.773Z,66.00
2022-08-27T04:52:28.756Z,66.00
2022-08-27T04:53:01.527Z,66.10
2022-08-27T04:53:33.391Z,66.00
2022-08-27T04:54:06.622Z,66.00
2022-08-27T04:54:38.586Z,66.00
2022-08-27T04:55:10.362Z,66.00
2022-08-27T04:55:51.242Z,65.90
2022-08-27T04:56:24.614Z,66.00
2022-08-27T04:56:56.469Z,65.90
2022-08-27T04:57:28.264Z,66.00
2022-08-27T04:57:59.989Z,66.20
2022-08-27T04:58:31.864Z,66.20
2022-08-27T04:59:06.755Z,66.50
2022-08-27T04:59:39.052Z,66.00
2022-08-27T05:00:11.354Z,66.00
2022-08-27T05:00:45.562Z,66.20
2022-08-27T05:01:20.492Z,66.90
2022-08-27T05:01:52.375Z,66.00
2022-08-27T05:02:24.193Z,66.20
2022-08-27T05:02:56.395Z,66.80
2022-08-27T05:03:28.790Z,65.40
2022-08-27T05:04:00.770Z,66.60
2022-08-27T05:04:40.034Z,66.10
2022-08-27T05:05:15.821Z,66.00
2022-08-27T05:05:47.955Z,66.10
2022-08-27T05:06:21.154Z,66.20
2022-08-27T05:06:54.423Z,66.30
2022-08-27T05:07:26.801Z,66.20
2022-08-27T05:07:58.694Z,66.80
2022-08-27T05:08:31.467Z,66.20
2022-08-27T05:09:05.498Z,66.10
2022-08-27T05:09:37.764Z,66.30
2022-08-27T05:10:09.658Z,66.30
2022-08-27T05:10:43.864Z,66.80
2022-08-27T05:11:17.157Z,66.00
2022-08-27T05:11:48.984Z,64.80
2022-08-27T05:12:20.810Z,66.00
2022-08-27T05:12:52.549Z,66.20
2022-08-27T05:13:24.482Z,66.10
2022-08-27T05:13:56.370Z,66.30
2022-08-27T05:14:32.616Z,66.00
2022-08-27T05:15:04.874Z,65.80
2022-08-27T05:15:37.729Z,66.00
2022-08-27T05:16:12.728Z,66.10
2022-08-27T05:16:44.645Z,66.00
2022-08-27T05:17:16.433Z,65.00
2022-08-27T05:17:48.217Z,66.00
2022-08-27T05:18:20.013Z,66.10
2022-08-27T05:18:53.511Z,66.00
2022-08-27T05:19:25.752Z,66.00
2022-08-27T05:19:57.567Z,66.00
2022-08-27T05:20:31.083Z,66.00
2022-08-27T05:21:04.180Z,66.20
2022-08-27T05:21:38.848Z,66.00
2022-08-27T05:22:10.640Z,66.00
2022-08-27T05:22:42.412Z,66.30
2022-08-27T05:23:17.191Z,66.20
2022-08-27T05:23:49.926Z,66.00
2022-08-27T05:24:22.635Z,66.20
2022-08-27T05:24:54.455Z,66.10
2022-08-27T05:25:27.474Z,66.00
2022-08-27T05:26:00.187Z,66.00
2022-08-27T05:26:34.358Z,66.70
2022-08-27T05:27:06.480Z,66.20
2022-08-27T05:27:41.678Z,66.20
2022-08-27T05:28:14.955Z,66.20
2022-08-27T05:28:47.129Z,66.20
2022-08-27T05:29:19.048Z,66.40
2022-08-27T05:29:50.822Z,66.30
2022-08-27T05:30:22.597Z,66.30
2022-08-27T05:31:02.862Z,66.30
2022-08-27T05:31:35.581Z,66.30
2022-08-27T05:32:07.452Z,66.30
2022-08-27T05:32:39.707Z,66.40
2022-08-27T05:33:14.841Z,66.10
2022-08-27T05:33:47.820Z,66.20
2022-08-27T05:34:22.027Z,66.30
2022-08-27T05:34:56.616Z,66.30
2022-08-27T05:35:28.643Z,66.30
2022-08-27T05:36:01.244Z,66.30
2022-08-27T05:36:35.682Z,66.40
2022-08-27T05:37:07.842Z,66.30
2022-08-27T05:37:39.601Z,66.10
2022-08-27T05:38:12.233Z,66.30
2022-08-27T05:38:44.113Z,66.30
2022-08-27T05:39:17.119Z,66.30
2022-08-27T05:39:48.914Z,66.10
2022-08-27T05:40:20.984Z,66.40
2022-08-27T05:41:06.730Z,66.30
2022-08-27T05:41:39.528Z,66.40
2022-08-27T05:42:11.482Z,66.50
2022-08-27T05:42:43.286Z,66.30
2022-08-27T05:43:21.110Z,64.90
2022-08-27T05:43:58.037Z,66.30
2022-08-27T05:44:40.973Z,66.30
2022-08-27T05:45:14.796Z,66.40
2022-08-27T05:45:48.861Z,66.40
2022-08-27T05:46:23.125Z,66.30
2022-08-27T05:46:55.033Z,66.10
2022-08-27T05:47:27.402Z,66.30
2022-08-27T05:47:59.182Z,66.30
2022-08-27T05:48:31.129Z,66.40
2022-08-27T05:49:03.444Z,66.60
2022-08-27T05:49:35.289Z,66.40
2022-08-27T05:50:07.401Z,66.40
2022-08-27T05:50:40.295Z,66.40
2022-08-27T05:51:17.707Z,66.50
2022-08-27T05:51:57.758Z,66.50
2022-08-27T05:52:29.609Z,66.60
2022-08-27T05:53:02.189Z,65.50
2022-08-27T05:53:33.989Z,66.40
2022-08-27T05:54:10.977Z,66.40
2022-08-27T05:54:42.940Z,66.30
2022-08-27T05:55:14.735Z,66.60
2022-08-27T05:55:46.610Z,66.70
2022-08-27T05:56:22.016Z,66.60
2022-08-27T05:56:53.834Z,66.50
2022-08-27T05:57:25.688Z,66.60
2022-08-27T05:57:57.456Z,66.70
2022-08-27T05:58:47.963Z,66.60
2022-08-27T05:59:38.280Z,66.50
2022-08-27T06:00:29.344Z,66.60
2022-08-27T06:01:08.266Z,66.60
2022-08-27T06:01:45.818Z,66.60
2022-08-27T06:02:19.148Z,66.70
2022-08-27T06:02:51.037Z,67.10
2022-08-27T06:03:22.924Z,66.70
2022-08-27T06:03:55.091Z,66.90
2022-08-27T06:04:26.928Z,66.90
2022-08-27T06:04:58.723Z,66.80
2022-08-27T06:05:30.614Z,66.90
2022-08-27T06:06:05.125Z,67.10
2022-08-27T06:06:39.466Z,67.10
2022-08-27T06:07:11.314Z,68.00
2022-08-27T06:07:43.187Z,67.30
2022-08-27T06:08:14.990Z,67.10
2022-08-27T06:08:46.895Z,67.20
2022-08-27T06:09:22.691Z,67.10
2022-08-27T06:11:03.073Z,73.50
2022-08-27T06:11:35.257Z,79.70
2022-08-27T06:12:07.854Z,79.80
2022-08-27T06:12:39.613Z,80.50
2022-08-27T06:13:11.375Z,80.40
2022-08-27T06:13:43.626Z,84.90
2022-08-27T06:14:15.681Z,76.30
2022-08-27T06:14:47.529Z,81.30
2022-08-27T06:15:19.292Z,80.40
2022-08-27T06:15:51.163Z,79.70
2022-08-27T06:16:23.127Z,79.10
2022-08-27T06:16:55.563Z,78.20
2022-08-27T06:17:28.733Z,80.40
2022-08-27T06:18:00.575Z,80.90
2022-08-27T06:18:33.527Z,79.90
2022-08-27T06:19:06.010Z,79.20
2022-08-27T06:19:37.837Z,80.90
2022-08-27T06:20:10.734Z,82.10
2022-08-27T06:20:42.491Z,83.20
2022-08-27T06:21:21.481Z,84.40
2022-08-27T06:22:00.077Z,80.30
2022-08-27T06:24:14.827Z,85.00
2022-08-27T06:24:46.615Z,84.60
2022-08-27T06:25:18.487Z,81.80
2022-08-27T06:25:51.033Z,76.50
2022-08-27T06:26:24.731Z,78.70
2022-08-27T06:26:57.403Z,83.90
2022-08-27T06:28:02.762Z,83.70
2022-08-27T06:28:35.402Z,84.30
2022-08-27T06:29:10.098Z,79.70
2022-08-27T06:30:49.729Z,84.50
2022-08-27T06:31:24.558Z,84.10
2022-08-27T06:31:56.350Z,83.10
2022-08-27T06:32:28.142Z,77.90
2022-08-27T06:32:59.899Z,78.60
2022-08-27T06:33:32.258Z,80.40
2022-08-27T06:34:07.788Z,80.00
2022-08-27T06:35:44.294Z,79.20
2022-08-27T06:36:22.762Z,83.00
2022-08-27T06:36:54.999Z,83.50
2022-08-27T06:37:27.343Z,79.80
2022-08-27T06:37:59.213Z,80.50
2022-08-27T06:38:31.305Z,81.10
2022-08-27T06:39:03.477Z,81.80
2022-08-27T06:39:36.238Z,80.90
2022-08-27T06:40:10.818Z,81.50
2022-08-27T06:41:23.690Z,82.40
2022-08-27T06:41:55.814Z,82.90
2022-08-27T06:42:27.635Z,81.90
2022-08-27T06:43:00.265Z,80.60
2022-08-27T06:43:35.180Z,81.00
2022-08-27T06:44:06.993Z,81.50
2022-08-27T06:44:39.296Z,81.70
2022-08-27T06:45:44.330Z,82.70
2022-08-27T06:46:18.949Z,83.10
2022-08-27T06:46:51.680Z,82.30
2022-08-27T06:47:23.519Z,81.60
2022-08-27T06:48:28.177Z,77.30
2022-08-27T06:49:01.420Z,80.70
2022-08-27T06:49:33.604Z,81.40
2022-08-27T06:50:39.519Z,82.20
2022-08-27T06:51:18.400Z,82.80
2022-08-27T06:51:50.230Z,82.80
2022-08-27T06:52:22.028Z,83.10
2022-08-27T06:52:53.976Z,79.90
2022-08-27T06:53:26.324Z,80.90
2022-08-27T06:54:00.757Z,81.70
2022-08-27T06:54:32.585Z,81.90
2022-08-27T06:55:05.709Z,81.90
2022-08-27T06:55:46.324Z,81.80
2022-08-27T06:56:18.682Z,81.20
2022-08-27T06:56:50.496Z,81.70
2022-08-27T06:57:24.570Z,81.40
2022-08-27T06:57:56.557Z,81.70
2022-08-27T06:58:28.421Z,82.00
2022-08-27T06:59:04.158Z,82.10
2022-08-27T06:59:39.398Z,82.60
2022-08-27T07:00:48.476Z,82.30
2022-08-27T07:01:28.193Z,83.00
2022-08-27T07:02:02.101Z,82.40
2022-08-27T07:02:34.009Z,81.80
2022-08-27T07:03:38.193Z,78.40
2022-08-27T07:04:13.346Z,82.40
2022-08-27T07:04:45.435Z,81.60
2022-08-27T07:05:18.995Z,82.80
2022-08-27T07:05:50.766Z,82.60
2022-08-27T07:06:22.618Z,81.20
2022-08-27T07:06:54.430Z,81.90
2022-08-27T07:07:36.491Z,82.20
2022-08-27T07:08:10.407Z,83.10
2022-08-27T07:09:15.045Z,83.40
2022-08-27T07:09:47.128Z,81.20
2022-08-27T07:10:18.970Z,81.10
2022-08-27T07:10:55.389Z,81.30
2022-08-27T07:11:29.066Z,81.60
2022-08-27T07:12:01.900Z,81.50
2022-08-27T07:13:06.198Z,78.80
2022-08-27T07:13:39.280Z,82.90
2022-08-27T07:14:11.533Z,81.50
2022-08-27T07:14:43.282Z,82.60
2022-08-27T07:15:15.889Z,83.80
2022-08-27T07:16:23.990Z,81.30
2022-08-27T07:16:56.205Z,85.30
2022-08-27T07:17:28.306Z,85.00
2022-08-27T07:18:00.149Z,85.40
2022-08-27T07:19:05.915Z,84.70
2022-08-27T07:19:40.951Z,84.30
2022-08-27T07:20:46.500Z,84.60
2022-08-27T07:21:20.006Z,85.60
2022-08-27T07:21:51.893Z,87.60
2022-08-27T07:22:58.706Z,86.70
2022-08-27T07:24:38.043Z,85.70
2022-08-27T07:25:12.880Z,85.60
2022-08-27T07:25:45.450Z,86.30
2022-08-27T07:26:51.179Z,81.90
2022-08-27T07:27:23.410Z,85.60
2022-08-27T07:27:55.187Z,85.40
2022-08-27T07:29:00.812Z,86.70
2022-08-27T07:30:08.282Z,86.50
2022-08-27T07:30:40.181Z,86.80
2022-08-27T07:31:48.816Z,86.60
2022-08-27T07:33:25.221Z,88.70
2022-08-27T07:33:57.323Z,80.90
2022-08-27T07:34:29.263Z,83.70